Time;durP1;ratioP1;P1;durP2;ratioP2;P2;SDS_P1;SDS_P2;PMS_P1;PMS_P2;Temp;Humidity;BMP_temperature;BMP_pressure;BME280_temperature;BME280_humidity;BME280_pressure;Samples;Min_cycle;Max_cycle;Signal;HPM_P1;HPM_P2
2023/08/09 00:01:34;;;;;;;18.80;7.60;;;;;;;19.61;100.00;100767.56;107127;1282;59040;-75
2023/08/09 00:04:00;;;;;;;15.40;7.50;;;;;;;19.58;100.00;100767.14;107090;1282;61018;-74
2023/08/09 00:06:26;;;;;;;14.30;7.40;;;;;;;19.54;100.00;100762.02;106713;1284;59134;-74
2023/08/09 00:08:51;;;;;;;15.00;7.20;;;;;;;19.50;100.00;100754.56;107112;1282;59026;-75
2023/08/09 00:11:17;;;;;;;14.20;7.90;;;;;;;19.46;100.00;100757.29;107054;1282;59033;-74
2023/08/09 00:13:42;;;;;;;14.00;7.80;;;;;;;19.41;100.00;100764.66;107139;1282;58998;-74
2023/08/09 00:16:08;;;;;;;15.50;8.20;;;;;;;19.38;100.00;100772.02;107071;1282;75467;-74
2023/08/09 00:18:34;;;;;;;14.50;6.90;;;;;;;19.35;100.00;100771.95;107119;1282;59144;-75
2023/08/09 00:21:00;;;;;;;16.80;7.80;;;;;;;19.29;100.00;100770.55;107101;1282;59072;-74
2023/08/09 00:23:26;;;;;;;15.90;7.80;;;;;;;19.29;100.00;100773.19;106729;1282;59426;-74
2023/08/09 00:25:52;;;;;;;13.90;7.40;;;;;;;19.24;100.00;100774.14;107105;1282;59083;-74
2023/08/09 00:28:17;;;;;;;14.90;7.10;;;;;;;19.21;100.00;100774.54;107141;1282;59223;-74
2023/08/09 00:30:43;;;;;;;11.70;7.20;;;;;;;19.21;100.00;100777.11;107127;1282;59093;-75
2023/08/09 00:33:09;;;;;;;12.80;6.50;;;;;;;19.22;100.00;100778.84;107049;1282;62720;-74
2023/08/09 00:35:34;;;;;;;11.30;5.90;;;;;;;19.18;100.00;100774.23;106718;1283;59413;-74
2023/08/09 00:38:00;;;;;;;10.40;6.00;;;;;;;19.12;100.00;100766.73;107133;1282;58986;-74
2023/08/09 00:40:26;;;;;;;11.60;5.40;;;;;;;19.04;100.00;100769.23;107122;1282;59135;-74
2023/08/09 00:42:51;;;;;;;9.60;4.70;;;;;;;18.98;100.00;100770.26;107157;1282;59151;-74
2023/08/09 00:45:17;;;;;;;6.40;3.60;;;;;;;18.91;100.00;100769.40;107105;1282;59969;-75
2023/08/09 00:47:43;;;;;;;7.50;4.30;;;;;;;18.85;100.00;100768.30;107107;1282;59066;-75
2023/08/09 00:50:08;;;;;;;7.30;3.90;;;;;;;18.77;100.00;100775.80;107094;1282;59526;-74
2023/08/09 00:52:35;;;;;;;10.00;3.20;;;;;;;18.69;100.00;100774.77;106754;1283;59137;-75
2023/08/09 00:55:03;;;;;;;7.90;3.60;;;;;;;18.66;100.00;100779.77;107124;1282;59035;-74
2023/08/09 00:57:29;;;;;;;7.00;3.20;;;;;;;18.61;100.00;100774.70;106534;1285;59215;-74
2023/08/09 00:59:55;;;;;;;6.60;3.20;;;;;;;18.58;100.00;100766.67;107119;1282;59076;-74
2023/08/09 01:02:22;;;;;;;5.40;3.20;;;;;;;18.55;100.00;100766.92;106912;1282;59153;-76
2023/08/09 01:04:47;;;;;;;7.10;2.80;;;;;;;18.54;100.00;100778.73;106709;1283;59169;-75
2023/08/09 01:07:39;;;;;;;6.60;2.90;;;;;;;18.53;100.00;100789.72;106745;1282;60004;-75
2023/08/09 01:10:27;;;;;;;5.40;2.60;;;;;;;18.53;100.00;100805.60;106330;1289;60201;-75
2023/08/09 01:12:57;;;;;;;10.60;2.90;;;;;;;18.54;100.00;100797.40;106346;1289;75053;-75
2023/08/09 01:15:23;;;;;;;10.90;3.60;;;;;;;18.59;100.00;100791.38;106231;1289;74350;-75
2023/08/09 01:17:52;;;;;;;15.00;4.00;;;;;;;18.56;100.00;100811.70;106155;1289;71301;-74
2023/08/09 01:20:19;;;;;;;17.60;3.10;;;;;;;18.51;100.00;100819.52;106301;1289;62706;-74
2023/08/09 01:22:53;;;;;;;13.80;2.90;;;;;;;18.50;100.00;100806.45;106328;1289;61160;-75
2023/08/09 01:25:19;;;;;;;16.00;3.70;;;;;;;18.45;100.00;100810.27;106094;1292;75610;-76
2023/08/09 01:27:45;;;;;;;11.00;3.50;;;;;;;18.33;100.00;100814.27;106354;1289;59191;-75
2023/08/09 01:30:11;;;;;;;7.10;3.40;;;;;;;18.24;100.00;100816.25;106343;1289;59110;-76
2023/08/09 01:32:37;;;;;;;9.20;3.40;;;;;;;18.21;100.00;100815.12;106339;1289;59108;-75
2023/08/09 01:35:03;;;;;;;9.40;3.30;;;;;;;18.22;100.00;100811.26;106334;1291;59492;-75
2023/08/09 01:37:49;;;;;;;6.40;3.00;;;;;;;18.25;100.00;100806.79;106399;1289;59465;-75
2023/08/09 01:43:37;;;;;;;7.90;2.50;;;;;;;18.06;100.00;100790.42;106339;1289;71284;-75
2023/08/09 01:46:02;;;;;;;15.90;3.30;;;;;;;18.00;100.00;100795.54;106375;1289;59097;-75
2023/08/09 01:48:28;;;;;;;9.00;3.00;;;;;;;17.97;100.00;100789.27;107105;1282;59119;-76
2023/08/09 01:50:54;;;;;;;6.90;3.00;;;;;;;17.87;100.00;100786.57;107142;1282;59120;-76
2023/08/09 01:53:20;;;;;;;4.70;2.50;;;;;;;17.80;100.00;100775.97;107116;1282;59031;-75
2023/08/09 01:55:45;;;;;;;5.90;2.70;;;;;;;17.75;100.00;100795.74;107119;1282;59015;-75
2023/08/09 01:58:11;;;;;;;6.00;2.50;;;;;;;17.73;100.00;100813.38;107160;1282;59025;-75
2023/08/09 02:00:36;;;;;;;3.60;2.50;;;;;;;17.68;100.00;100816.92;106749;1282;59404;-75
2023/08/09 02:03:02;;;;;;;4.50;2.30;;;;;;;17.71;100.00;100821.39;107092;1282;59863;-74
2023/08/09 02:05:28;;;;;;;3.20;2.30;;;;;;;17.70;100.00;100821.84;106774;1283;59448;-75
2023/08/09 02:07:53;;;;;;;4.50;2.30;;;;;;;17.65;100.00;100827.34;106784;1283;59551;-75
2023/08/09 02:10:19;;;;;;;4.40;2.10;;;;;;;17.65;100.00;100832.55;107194;1282;59072;-75
2023/08/09 02:12:47;;;;;;;3.70;1.70;;;;;;;17.59;100.00;100838.35;107096;1283;73376;-75
2023/08/09 02:15:15;;;;;;;2.70;1.90;;;;;;;17.53;100.00;100842.86;107115;1282;73475;-75
2023/08/09 02:17:43;;;;;;;3.90;2.10;;;;;;;17.55;100.00;100852.05;107088;1282;61734;-74
2023/08/09 02:20:09;;;;;;;5.40;2.00;;;;;;;17.48;100.00;100845.71;107083;1282;61018;-75
2023/08/09 02:22:36;;;;;;;4.30;2.00;;;;;;;17.45;100.00;100846.70;107119;1282;75297;-75
2023/08/09 02:25:03;;;;;;;2.90;1.90;;;;;;;17.48;100.00;100848.79;107089;1282;72603;-76
2023/08/09 02:27:29;;;;;;;5.80;1.90;;;;;;;17.46;100.00;100856.45;106699;1283;72505;-75
2023/08/09 02:29:55;;;;;;;2.50;1.90;;;;;;;17.46;100.00;100859.05;107082;1282;58983;-75
2023/08/09 02:32:20;;;;;;;2.80;1.80;;;;;;;17.45;100.00;100865.89;106764;1282;59273;-75
2023/08/09 02:34:46;;;;;;;6.30;1.60;;;;;;;17.47;100.00;100869.08;106783;1283;59036;-75
2023/08/09 02:37:12;;;;;;;4.10;2.00;;;;;;;17.45;100.00;100871.67;107125;1282;59125;-75
2023/08/09 02:39:37;;;;;;;2.30;1.60;;;;;;;17.42;100.00;100871.73;107048;1282;62560;-76
2023/08/09 02:42:03;;;;;;;3.20;1.80;;;;;;;17.44;100.00;100873.98;107075;1282;59151;-75
2023/08/09 02:44:29;;;;;;;4.90;1.70;;;;;;;17.44;100.00;100873.21;106740;1282;59237;-75
2023/08/09 02:46:55;;;;;;;3.10;1.50;;;;;;;17.46;100.00;100869.84;107078;1282;59132;-75
2023/08/09 02:49:20;;;;;;;5.70;1.70;;;;;;;17.46;100.00;100868.14;107099;1282;59181;-75
2023/08/09 02:51:46;;;;;;;4.10;1.60;;;;;;;17.45;100.00;100869.88;107121;1282;59458;-75
2023/08/09 02:54:11;;;;;;;2.90;2.00;;;;;;;17.49;100.00;100875.25;107076;1282;75520;-75
2023/08/09 02:56:37;;;;;;;2.20;1.40;;;;;;;17.51;100.00;100879.09;107128;1282;59003;-75
2023/08/09 02:59:03;;;;;;;3.00;1.70;;;;;;;17.52;100.00;100884.23;107088;1282;59455;-75
2023/08/09 03:01:29;;;;;;;2.40;1.60;;;;;;;17.50;100.00;100878.40;106696;1283;59108;-76
2023/08/09 03:03:55;;;;;;;4.90;1.70;;;;;;;17.46;100.00;100887.38;107095;1282;59048;-75
2023/08/09 03:06:22;;;;;;;3.60;1.30;;;;;;;17.47;100.00;100892.42;107159;1282;59168;-75
2023/08/09 03:08:48;;;;;;;1.70;1.20;;;;;;;17.47;100.00;100889.99;107051;1283;73471;-76
2023/08/09 03:11:14;;;;;;;3.00;1.10;;;;;;;17.43;100.00;100887.02;107061;1282;58996;-76
2023/08/09 03:13:40;;;;;;;4.70;1.20;;;;;;;17.41;100.00;100884.17;107109;1282;59039;-76
2023/08/09 03:16:07;;;;;;;1.50;0.90;;;;;;;17.43;100.00;100887.89;107063;1282;59056;-77
2023/08/09 03:18:33;;;;;;;2.50;1.10;;;;;;;17.41;100.00;100891.13;106993;1283;59035;-76
2023/08/09 03:20:58;;;;;;;4.00;1.20;;;;;;;17.41;100.00;100892.99;107040;1282;59065;-76
2023/08/09 03:23:24;;;;;;;2.30;1.10;;;;;;;17.39;100.00;100895.20;107093;1282;59096;-75
2023/08/09 03:25:50;;;;;;;6.70;1.00;;;;;;;17.51;100.00;100894.98;106792;1283;60038;-76
2023/08/09 03:28:15;;;;;;;1.10;0.90;;;;;;;17.55;100.00;100895.63;106809;1283;59223;-76
2023/08/09 03:30:41;;;;;;;1.30;1.10;;;;;;;17.59;100.00;100897.95;106628;1283;72371;-76
2023/08/09 03:33:07;;;;;;;3.10;0.90;;;;;;;17.56;100.00;100900.02;107065;1282;59083;-76
2023/08/09 03:35:32;;;;;;;6.30;1.10;;;;;;;17.57;100.00;100896.11;107107;1282;59103;-75
2023/08/09 03:37:58;;;;;;;1.50;1.10;;;;;;;17.58;100.00;100897.21;107126;1282;59067;-76
2023/08/09 03:40:23;;;;;;;2.10;1.20;;;;;;;17.62;100.00;100902.39;106752;1282;59207;-76
2023/08/09 03:42:49;;;;;;;3.30;0.90;;;;;;;17.64;100.00;100902.67;107028;1282;62899;-76
2023/08/09 03:45:14;;;;;;;2.10;1.00;;;;;;;17.65;100.00;100903.69;107130;1282;59133;-75
2023/08/09 03:47:40;;;;;;;2.30;1.10;;;;;;;17.66;100.00;100900.41;106906;1283;59077;-75
2023/08/09 03:50:06;;;;;;;3.40;1.00;;;;;;;17.64;100.00;100898.58;107107;1282;59138;-75
2023/08/09 03:52:33;;;;;;;1.60;1.00;;;;;;;17.67;100.00;100896.91;107078;1282;59018;-75
2023/08/09 03:54:59;;;;;;;5.50;1.20;;;;;;;17.71;100.00;100897.73;107078;1282;59074;-76
2023/08/09 03:57:25;;;;;;;5.60;1.30;;;;;;;17.69;100.00;100896.52;107119;1282;58995;-76
2023/08/09 03:59:50;;;;;;;2.50;1.30;;;;;;;17.67;100.00;100895.09;107148;1282;59129;-75
2023/08/09 04:02:17;;;;;;;5.40;2.20;;;;;;;17.73;100.00;100899.09;107079;1282;59090;-76
2023/08/09 04:04:43;;;;;;;2.10;1.20;;;;;;;17.90;100.00;100898.69;106849;1283;61668;-75
2023/08/09 04:07:09;;;;;;;5.10;1.20;;;;;;;17.94;100.00;100896.55;107114;1282;59054;-76
2023/08/09 04:09:35;;;;;;;3.60;1.40;;;;;;;18.00;100.00;100900.30;107092;1282;59365;-76
2023/08/09 04:12:01;;;;;;;5.40;1.50;;;;;;;18.12;100.00;100899.58;106964;1283;59081;-76
2023/08/09 04:14:27;;;;;;;2.30;1.30;;;;;;;18.30;100.00;100905.27;107087;1282;59056;-76
2023/08/09 04:16:53;;;;;;;3.00;1.50;;;;;;;18.44;100.00;100902.42;107115;1282;59209;-76
2023/08/09 04:19:18;;;;;;;2.40;1.50;;;;;;;18.54;100.00;100901.29;106850;1283;59516;-76
2023/08/09 04:21:44;;;;;;;4.00;2.00;;;;;;;18.66;100.00;100900.98;107092;1282;73253;-76
2023/08/09 04:24:12;;;;;;;3.80;1.50;;;;;;;18.71;100.00;100897.92;107101;1283;59050;-76
2023/08/09 04:26:38;;;;;;;4.40;1.50;;;;;;;18.84;100.00;100899.11;106849;1283;60737;-76
2023/08/09 04:29:04;;;;;;;2.80;1.60;;;;;;;19.03;100.00;100896.94;106942;1283;59151;-76
2023/08/09 04:31:29;;;;;;;1.70;1.30;;;;;;;19.52;100.00;100893.08;107068;1282;59009;-76
2023/08/09 04:33:55;;;;;;;3.60;1.30;;;;;;;19.97;100.00;100891.89;107109;1283;59456;-76
2023/08/09 04:36:20;;;;;;;2.70;1.30;;;;;;;20.49;100.00;100896.98;107163;1282;59100;-76
2023/08/09 04:38:46;;;;;;;3.80;1.60;;;;;;;20.79;100.00;100894.69;107070;1282;59098;-76
2023/08/09 04:41:12;;;;;;;2.10;1.50;;;;;;;21.63;100.00;100889.46;107130;1282;59056;-81
2023/08/09 04:46:59;;;;;;;5.30;1.30;;;;;;;23.88;100.00;100884.39;107007;1282;72271;-80
2023/08/09 04:49:25;;;;;;;2.50;1.10;;;;;;;24.62;100.00;100890.14;107086;1282;59037;-81
2023/08/09 04:51:51;;;;;;;3.50;1.10;;;;;;;25.34;100.00;100891.80;106727;1283;59157;-81
2023/08/09 04:54:17;;;;;;;3.90;1.30;;;;;;;26.03;100.00;100887.92;107128;1283;59108;-82
2023/08/09 04:56:42;;;;;;;3.00;1.00;;;;;;;26.69;100.00;100893.64;107093;1283;59089;-81
2023/08/09 04:59:07;;;;;;;2.50;1.20;;;;;;;27.10;100.00;100896.70;107139;1282;59089;-81
2023/08/09 05:01:33;;;;;;;1.70;1.20;;;;;;;27.24;100.00;100897.73;107107;1282;59336;-81
2023/08/09 05:03:58;;;;;;;0.80;0.80;;;;;;;27.59;100.00;100898.52;107110;1283;59181;-81
2023/08/09 05:06:24;;;;;;;1.60;1.20;;;;;;;27.87;100.00;100901.17;107135;1282;58961;-82
2023/08/09 05:08:50;;;;;;;2.40;1.20;;;;;;;28.42;100.00;100900.22;107109;1283;59108;-82
2023/08/09 05:11:15;;;;;;;3.70;1.10;;;;;;;28.98;94.34;100899.87;107157;1283;59857;-83
2023/08/09 05:13:41;;;;;;;2.30;1.30;;;;;;;29.39;89.06;100893.84;107132;1282;75226;-82
2023/08/09 05:16:06;;;;;;;2.90;1.20;;;;;;;29.71;82.03;100897.19;107145;1282;59206;-82
2023/08/09 05:18:32;;;;;;;1.50;1.30;;;;;;;29.81;79.88;100893.48;107090;1282;59052;-82
2023/08/09 05:20:58;;;;;;;3.00;1.50;;;;;;;30.18;78.96;100886.86;107035;1282;59060;-81
2023/08/09 05:23:23;;;;;;;1.60;1.40;;;;;;;30.29;71.79;100881.94;107241;1282;59699;-82
2023/08/09 05:25:49;;;;;;;1.90;1.20;;;;;;;30.20;72.99;100886.41;107125;1283;74212;-82
2023/08/09 05:28:14;;;;;;;3.10;1.50;;;;;;;30.45;70.55;100894.60;107142;1282;59107;-82
2023/08/09 05:30:40;;;;;;;1.40;1.30;;;;;;;30.74;70.48;100896.11;107102;1282;59457;-84
2023/08/09 05:33:07;;;;;;;1.80;1.50;;;;;;;31.34;68.52;100900.39;107155;1282;59101;-82
2023/08/09 05:35:32;;;;;;;1.40;1.30;;;;;;;31.81;66.87;100904.94;107107;1283;58988;-83
2023/08/09 05:37:58;;;;;;;2.30;1.60;;;;;;;32.06;64.64;100908.14;106916;1283;59083;-83
2023/08/09 05:40:24;;;;;;;2.30;1.60;;;;;;;32.29;62.40;100906.98;107115;1282;59307;-83
2023/08/09 05:42:49;;;;;;;2.70;1.40;;;;;;;32.19;59.87;100903.41;107117;1283;59029;-83
2023/08/09 05:45:15;;;;;;;4.30;1.50;;;;;;;32.26;59.49;100907.88;107002;1283;59189;-83
2023/08/09 05:47:40;;;;;;;2.60;1.70;;;;;;;32.47;59.54;100917.02;106860;1282;59069;-83
2023/08/09 05:50:06;;;;;;;2.30;1.80;;;;;;;32.61;57.85;100916.98;107136;1283;59051;-83
2023/08/09 05:52:32;;;;;;;1.50;1.40;;;;;;;32.65;59.80;100922.64;107145;1282;59016;-84
2023/08/09 05:54:58;;;;;;;2.00;1.50;;;;;;;33.31;58.89;100917.97;107132;1282;75369;-83
2023/08/09 05:57:23;;;;;;;3.40;1.60;;;;;;;33.66;56.69;100918.98;107152;1282;59040;-83
2023/08/09 05:59:49;;;;;;;1.70;1.50;;;;;;;34.07;54.92;100916.42;107099;1283;59075;-84
2023/08/09 06:02:14;;;;;;;1.80;1.70;;;;;;;34.48;54.66;100921.46;107028;1283;59036;-84
2023/08/09 06:04:40;;;;;;;3.50;1.70;;;;;;;34.87;52.53;100928.48;107007;1283;59176;-84
2023/08/09 06:07:05;;;;;;;2.50;2.00;;;;;;;35.27;52.00;100933.65;106709;1285;73356;-83
2023/08/09 06:09:31;;;;;;;5.00;1.80;;;;;;;35.75;49.71;100934.01;106555;1286;59331;-84
2023/08/09 06:11:56;;;;;;;2.20;1.80;;;;;;;35.70;47.76;100939.37;106689;1286;58941;-84
2023/08/09 06:14:22;;;;;;;2.20;2.00;;;;;;;35.41;47.11;100946.27;106651;1287;59172;-84
2023/08/09 06:16:48;;;;;;;1.90;1.80;;;;;;;35.45;47.36;100947.17;106705;1286;59061;-83
2023/08/09 06:19:14;;;;;;;1.90;1.80;;;;;;;35.79;47.42;100951.64;106698;1286;59196;-85
2023/08/09 06:21:40;;;;;;;2.10;2.00;;;;;;;36.43;47.81;100955.23;106461;1287;59083;-83
2023/08/09 06:24:06;;;;;;;2.20;1.90;;;;;;;36.78;45.34;100958.19;106283;1289;61356;-85
2023/08/09 06:26:33;;;;;;;1.90;1.80;;;;;;;36.97;46.53;100959.15;106297;1286;59150;-83
2023/08/09 06:29:00;;;;;;;2.30;2.10;;;;;;;37.46;45.03;100963.67;106637;1287;59177;-84
2023/08/09 06:31:26;;;;;;;4.80;1.60;;;;;;;37.74;43.82;100966.17;106638;1289;59138;-85
2023/08/09 06:33:53;;;;;;;3.30;1.70;;;;;;;37.23;43.00;100974.20;106486;1292;59127;-86
2023/08/09 06:36:19;;;;;;;3.30;1.80;;;;;;;36.22;43.44;100975.17;106671;1286;60237;-85
2023/08/09 06:38:44;;;;;;;2.60;1.40;;;;;;;35.39;44.91;100974.09;106750;1283;59220;-85
2023/08/09 06:41:10;;;;;;;3.20;2.00;;;;;;;35.09;44.91;100974.07;107159;1283;59248;-86
2023/08/09 06:43:35;;;;;;;3.70;1.80;;;;;;;35.35;48.17;100975.09;106504;1282;59048;-86
2023/08/09 06:46:01;;;;;;;3.80;1.60;;;;;;;36.42;46.71;100980.68;106648;1283;59941;-86
2023/08/09 06:48:29;;;;;;;3.40;1.50;;;;;;;36.21;44.09;100984.87;107123;1282;75410;-84
2023/08/09 06:51:00;;;;;;;3.20;1.40;;;;;;;35.26;44.63;100988.84;107116;1283;74417;-86
2023/08/09 06:53:25;;;;;;;6.00;2.50;;;;;;;34.33;44.23;100989.39;107086;1283;73416;-85
2023/08/09 06:55:51;;;;;;;1.70;1.60;;;;;;;33.73;46.79;100993.46;107133;1283;58976;-87
2023/08/09 06:58:17;;;;;;;1.90;1.70;;;;;;;33.62;46.77;100997.67;106862;1288;59081;-86
2023/08/09 07:00:45;;;;;;;1.60;1.50;;;;;;;33.70;46.22;100995.14;106868;1283;59163;-85
2023/08/09 07:03:10;;;;;;;1.60;1.40;;;;;;;33.03;46.69;101003.17;107080;1283;59078;-85
2023/08/09 07:05:36;;;;;;;1.70;1.60;;;;;;;33.17;49.48;100999.77;107065;1282;59394;-87
2023/08/09 07:08:02;;;;;;;2.50;1.40;;;;;;;34.41;49.17;100995.32;107100;1286;59105;-86
2023/08/09 07:10:27;;;;;;;1.80;1.50;;;;;;;35.28;46.43;100991.93;106858;1283;59239;-86
2023/08/09 07:12:53;;;;;;;1.90;1.50;;;;;;;35.07;44.65;100998.50;106880;1283;74054;-85
2023/08/09 07:15:19;;;;;;;1.60;1.50;;;;;;;34.88;46.41;101005.45;106867;1282;59109;-84
2023/08/09 07:17:46;;;;;;;2.60;1.50;;;;;;;35.56;45.11;101005.34;107083;1283;59013;-84
2023/08/09 07:20:12;;;;;;;7.60;1.70;;;;;;;36.12;43.80;101003.41;107152;1283;59903;-85
2023/08/09 07:22:44;;;;;;;1.70;1.60;;;;;;;36.30;43.12;101013.04;106545;1282;59072;-84
2023/08/09 07:25:13;;;;;;;2.80;1.80;;;;;;;36.53;42.65;101020.36;106877;1282;72743;-83
2023/08/09 07:27:44;;;;;;;1.70;1.60;;;;;;;36.75;42.22;101019.73;107072;1283;73369;-86
2023/08/09 07:30:11;;;;;;;2.20;1.60;;;;;;;37.06;42.52;101017.92;106919;1283;60184;-85
2023/08/09 07:32:38;;;;;;;4.10;1.40;;;;;;;37.73;41.53;101015.31;106736;1284;60342;-84
2023/08/09 07:35:09;;;;;;;8.60;1.70;;;;;;;37.52;39.79;101015.20;107100;1282;73287;-85
2023/08/09 07:37:37;;;;;;;1.70;1.60;;;;;;;36.74;41.16;101016.13;107102;1283;73593;-86
2023/08/09 07:40:24;;;;;;;1.60;1.50;;;;;;;35.93;41.26;101018.65;106874;1286;72986;-85
2023/08/09 07:42:49;;;;;;;2.00;1.70;;;;;;;35.26;44.55;101020.08;106552;1287;59296;-85
2023/08/09 07:45:15;;;;;;;2.30;1.40;;;;;;;35.88;43.84;101021.96;106734;1289;59544;-85
2023/08/09 07:51:02;;;;;;;1.50;1.40;;;;;;;36.97;41.39;101021.95;106648;1288;73755;-86
2023/08/09 07:53:28;;;;;;;1.70;1.30;;;;;;;37.57;41.55;101025.31;106657;1289;59091;-85
2023/08/09 07:55:54;;;;;;;1.80;1.50;;;;;;;37.65;38.85;101026.09;106363;1288;58997;-85
2023/08/09 07:58:20;;;;;;;2.20;1.50;;;;;;;37.00;40.63;101022.70;106486;1288;60056;-84
2023/08/09 08:00:46;;;;;;;1.40;1.30;;;;;;;37.32;39.77;101026.32;106362;1292;59540;-85
2023/08/09 08:03:11;;;;;;;2.00;1.30;;;;;;;37.68;38.98;101025.70;106486;1288;59243;-84
2023/08/09 08:05:38;;;;;;;3.20;1.40;;;;;;;38.13;39.12;101022.98;106679;1289;59084;-84
2023/08/09 08:08:03;;;;;;;1.60;1.50;;;;;;;38.51;38.19;101022.70;106690;1288;61049;-85
2023/08/09 08:10:29;;;;;;;1.60;1.50;;;;;;;38.54;37.65;101019.45;106697;1288;59079;-84
2023/08/09 08:12:55;;;;;;;1.80;1.70;;;;;;;38.46;37.33;101015.89;106679;1287;59004;-84
2023/08/09 08:15:22;;;;;;;1.40;1.30;;;;;;;38.53;36.99;101013.61;106484;1288;59187;-84
2023/08/09 08:17:51;;;;;;;1.50;1.40;;;;;;;38.21;36.92;101009.09;106565;1290;59148;-84
2023/08/09 08:20:19;;;;;;;1.40;1.30;;;;;;;37.02;36.72;101017.50;106848;1283;60976;-83
2023/08/09 08:22:46;;;;;;;2.60;1.20;;;;;;;36.02;39.52;101015.98;107143;1283;75342;-84
2023/08/09 08:25:13;;;;;;;2.20;1.10;;;;;;;36.09;39.28;101012.67;106902;1283;74418;-84
2023/08/09 08:27:42;;;;;;;1.40;1.30;;;;;;;35.37;39.61;101017.52;106757;1286;72959;-83
2023/08/09 08:30:08;;;;;;;1.50;1.10;;;;;;;35.20;40.32;101022.07;107063;1283;61134;-83
2023/08/09 08:32:35;;;;;;;1.50;1.00;;;;;;;34.35;40.19;101025.21;107171;1283;59016;-84
2023/08/09 08:35:02;;;;;;;1.20;1.20;;;;;;;33.46;41.92;101027.12;107137;1283;59116;-85
2023/08/09 08:37:28;;;;;;;5.40;1.30;;;;;;;34.01;43.65;101021.23;107144;1283;73276;-83
2023/08/09 08:39:55;;;;;;;2.90;1.40;;;;;;;34.90;42.03;101021.35;106896;1283;73425;-83
2023/08/09 08:42:21;;;;;;;1.50;1.30;;;;;;;35.14;41.00;101021.09;107145;1282;59013;-84
2023/08/09 08:44:47;;;;;;;2.70;1.40;;;;;;;35.37;40.19;101019.30;106770;1283;59207;-83
2023/08/09 08:47:12;;;;;;;1.40;1.30;;;;;;;35.39;40.59;101023.35;107169;1282;58987;-83
2023/08/09 08:49:47;;;;;;;2.00;1.10;;;;;;;35.67;39.28;101023.63;107144;1283;59447;-82
2023/08/09 08:52:14;;;;;;;0.80;0.80;;;;;;;34.83;39.77;101028.05;107155;1283;72342;-84
2023/08/09 08:54:40;;;;;;;2.30;1.20;;;;;;;34.57;41.24;101026.31;106628;1286;60723;-83
2023/08/09 08:57:07;;;;;;;1.10;0.90;;;;;;;34.67;41.59;101024.07;107140;1283;59139;-83
2023/08/09 08:59:34;;;;;;;1.00;0.90;;;;;;;34.71;41.91;101024.83;107142;1282;59078;-83
2023/08/09 09:02:01;;;;;;;1.10;0.70;;;;;;;34.34;41.70;101024.83;106727;1283;59103;-83
2023/08/09 09:04:26;;;;;;;2.50;1.10;;;;;;;34.04;42.02;101036.32;107144;1283;72605;-83
2023/08/09 09:06:52;;;;;;;1.60;1.10;;;;;;;34.02;41.71;101036.27;107127;1283;59083;-81
2023/08/09 09:09:18;;;;;;;1.10;1.00;;;;;;;33.90;40.89;101042.80;107171;1282;59189;-83
2023/08/09 09:11:44;;;;;;;3.10;1.10;;;;;;;33.64;41.77;101040.40;107191;1283;58948;-82
2023/08/09 09:14:14;;;;;;;1.10;1.00;;;;;;;33.73;41.20;101039.14;107177;1283;59295;-83
2023/08/09 09:16:41;;;;;;;0.90;0.90;;;;;;;33.56;42.12;101041.55;106942;1283;73499;-83
2023/08/09 09:21:51;;;;;;;1.20;1.00;;;;;;;33.84;42.36;101045.56;106845;1284;59924;-84
2023/08/09 09:24:20;;;;;;;1.30;0.90;;;;;;;34.41;41.49;101038.61;107192;1282;59113;-84
2023/08/09 09:26:53;;;;;;;2.60;0.90;;;;;;;34.65;40.52;101042.16;106936;1283;74646;-82
2023/08/09 09:29:18;;;;;;;1.30;0.90;;;;;;;33.91;40.52;101040.88;107139;1282;72953;-82
2023/08/09 09:31:44;;;;;;;1.20;1.10;;;;;;;32.67;41.63;101043.82;107165;1282;59069;-83
2023/08/09 09:34:10;;;;;;;0.80;0.80;;;;;;;32.46;43.58;101046.17;107190;1282;59027;-83
2023/08/09 09:36:49;;;;;;;1.50;1.00;;;;;;;32.78;43.36;101042.88;107158;1282;59041;-83
2023/08/09 09:39:14;;;;;;;1.70;0.90;;;;;;;32.54;44.56;101050.41;106711;1287;74447;-83
2023/08/09 09:41:47;;;;;;;2.60;0.70;;;;;;;32.41;44.16;101052.05;106313;1290;59186;-83
2023/08/09 09:44:23;;;;;;;1.70;0.80;;;;;;;32.65;44.71;101052.78;106398;1286;61143;-83
2023/08/09 09:46:59;;;;;;;1.20;1.00;;;;;;;32.91;43.59;101058.09;106411;1287;60234;-82
2023/08/09 09:49:24;;;;;;;0.70;0.70;;;;;;;32.75;43.61;101055.80;106664;1287;75525;-83
2023/08/09 09:51:54;;;;;;;1.50;0.90;;;;;;;32.47;43.68;101058.05;106584;1288;59200;-83
2023/08/09 09:54:19;;;;;;;1.10;0.90;;;;;;;32.41;44.76;101061.30;106687;1288;73442;-83
2023/08/09 09:56:45;;;;;;;1.80;0.90;;;;;;;32.37;44.90;101058.66;106655;1286;59077;-82
2023/08/09 09:59:12;;;;;;;1.00;0.90;;;;;;;32.35;44.42;101049.80;106539;1288;59101;-82
2023/08/09 10:01:41;;;;;;;1.40;0.80;;;;;;;32.03;44.57;101048.11;106672;1286;59465;-82
2023/08/09 10:04:11;;;;;;;2.30;0.90;;;;;;;31.93;45.24;101037.73;106406;1289;74237;-82
2023/08/09 10:06:42;;;;;;;1.10;0.80;;;;;;;32.15;45.54;101038.02;106154;1289;73373;-82
2023/08/09 10:09:09;;;;;;;2.10;0.80;;;;;;;32.34;45.66;101042.16;106361;1289;61545;-83
2023/08/09 10:11:36;;;;;;;2.80;1.00;;;;;;;32.36;45.46;101045.84;106623;1288;61187;-82
2023/08/09 10:14:05;;;;;;;3.40;0.80;;;;;;;32.28;45.02;101048.95;106698;1286;75791;-81
2023/08/09 10:16:32;;;;;;;0.90;0.90;;;;;;;32.13;44.23;101047.80;106767;1285;73630;-82
2023/08/09 10:19:05;;;;;;;0.80;0.80;;;;;;;31.47;45.16;101053.73;106771;1285;73576;-83
2023/08/09 10:21:32;;;;;;;1.50;1.10;;;;;;;31.00;45.57;101056.89;106632;1286;61175;-82
2023/08/09 10:24:13;;;;;;;2.10;1.10;;;;;;;30.53;47.15;101059.49;106775;1285;59127;-82
2023/08/09 10:26:44;;;;;;;1.80;1.00;;;;;;;30.51;48.15;101062.80;106417;1286;75538;-84
2023/08/09 10:29:12;;;;;;;0.90;0.70;;;;;;;30.67;47.87;101062.70;106483;1285;74284;-82
2023/08/09 10:31:51;;;;;;;4.00;1.00;;;;;;;30.86;47.77;101055.48;106607;1286;73154;-82
2023/08/09 10:34:17;;;;;;;1.10;1.00;;;;;;;31.07;47.27;101056.71;106416;1286;59209;-82
2023/08/09 10:36:48;;;;;;;1.10;0.90;;;;;;;31.25;47.71;101056.25;107084;1282;60030;-84
2023/08/09 10:39:16;;;;;;;1.30;0.90;;;;;;;31.62;47.24;101059.93;106900;1283;74369;-83
2023/08/09 10:41:58;;;;;;;1.10;0.70;;;;;;;31.66;46.91;101053.25;106941;1283;74368;-82
2023/08/09 10:44:42;;;;;;;1.40;1.10;;;;;;;31.62;45.83;101051.25;106916;1283;73313;-82
2023/08/09 10:47:12;;;;;;;1.60;0.90;;;;;;;31.10;46.92;101050.44;107127;1282;60227;-83
2023/08/09 10:49:48;;;;;;;3.20;0.80;;;;;;;31.09;47.88;101051.70;107187;1282;60787;-83
2023/08/09 10:52:28;;;;;;;1.70;1.00;;;;;;;31.08;47.57;101050.60;107171;1282;75293;-82
2023/08/09 10:55:18;;;;;;;2.00;1.00;;;;;;;31.06;47.23;101051.05;106812;1282;74154;-83
2023/08/09 10:57:47;;;;;;;2.90;0.80;;;;;;;31.28;46.57;101055.71;107166;1282;74076;-82
2023/08/09 11:00:14;;;;;;;1.20;0.90;;;;;;;31.28;46.38;101054.81;106664;1286;59096;-83
2023/08/09 11:02:50;;;;;;;1.90;0.70;;;;;;;31.37;47.35;101049.24;106496;1287;59404;-82
2023/08/09 11:05:19;;;;;;;1.80;0.90;;;;;;;31.50;46.95;101047.31;106371;1289;74998;-83
2023/08/09 11:07:46;;;;;;;2.10;1.00;;;;;;;31.36;46.20;101041.59;106411;1289;74409;-82
2023/08/09 11:10:12;;;;;;;1.60;1.10;;;;;;;31.04;46.96;101040.06;106399;1288;73182;-82
2023/08/09 11:12:42;;;;;;;1.40;1.00;;;;;;;30.71;46.62;101044.38;106534;1288;59019;-83
2023/08/09 11:15:08;;;;;;;1.60;1.00;;;;;;;30.50;47.63;101046.43;106508;1288;60226;-83
2023/08/09 11:17:34;;;;;;;1.90;0.80;;;;;;;30.30;47.11;101053.71;106276;1289;59502;-83
2023/08/09 11:20:00;;;;;;;6.00;1.10;;;;;;;29.77;47.61;101053.79;106557;1288;59127;-86
2023/08/09 11:22:26;;;;;;;1.60;0.90;;;;;;;29.55;49.57;101053.52;106558;1288;59192;-82
2023/08/09 11:24:54;;;;;;;2.20;1.30;;;;;;;29.90;49.92;101054.89;106178;1288;358038;-80